Time;durP1;ratioP1;P1;durP2;ratioP2;P2;SDS_P1;SDS_P2;PMS_P1;PMS_P2;Temp;Humidity;BMP_temperature;BMP_pressure;BME280_temperature;BME280_humidity;BME280_pressure;Samples;Min_cycle;Max_cycle;Signal;HPM_P1;HPM_P2
2022/06/23 00:01:02;;;;;;;2.40;2.20;;;;;;;12.23;99.60;101381.19;5011579;28;20176;-46
2022/06/23 00:03:32;;;;;;;1.90;1.80;;;;;;;12.19;99.79;101374.19;5010949;28;20247;-47
2022/06/23 00:06:01;;;;;;;2.10;1.90;;;;;;;12.33;99.98;101379.03;5011309;28;20639;-47
2022/06/23 00:08:27;;;;;;;1.80;1.70;;;;;;;12.18;99.44;101383.19;5011147;28;20651;-50
2022/06/23 00:11:00;;;;;;;2.10;2.00;;;;;;;12.23;99.85;101375.81;5011532;28;20212;-47
2022/06/23 00:13:33;;;;;;;2.28;2.08;;;;;;;12.10;100.00;101382.56;5010790;28;20946;-48
2022/06/23 00:15:59;;;;;;;3.38;2.10;;;;;;;12.19;100.00;101376.88;5011042;28;20212;-48
2022/06/23 00:18:32;;;;;;;1.95;1.75;;;;;;;12.27;99.71;101380.16;5011459;28;20185;-51
2022/06/23 00:21:04;;;;;;;1.90;1.80;;;;;;;12.18;99.73;101369.75;5010912;28;20169;-48
2022/06/23 00:23:38;;;;;;;2.05;1.95;;;;;;;12.24;99.30;101374.00;5010764;28;20173;-48
2022/06/23 00:26:07;;;;;;;2.00;1.90;;;;;;;12.14;98.85;101373.47;5011025;28;20787;-47
2022/06/23 00:28:44;;;;;;;1.75;1.65;;;;;;;12.15;98.63;101375.22;5026119;28;20192;-46
2022/06/23 00:31:36;;;;;;;2.05;1.90;;;;;;;12.08;98.96;101381.75;5011262;28;20211;-50
2022/06/23 00:34:13;;;;;;;2.30;2.15;;;;;;;11.98;99.15;101389.25;5009510;28;20240;-50
2022/06/23 00:36:46;;;;;;;2.03;1.80;;;;;;;11.96;99.44;101383.06;5010867;28;20266;-50
2022/06/23 00:39:36;;;;;;;2.05;1.75;;;;;;;12.08;99.46;101376.38;5010899;28;20648;-48
2022/06/23 00:42:27;;;;;;;2.17;1.67;;;;;;;12.04;98.92;101377.41;5010981;28;20184;-51
2022/06/23 00:45:02;;;;;;;1.60;1.50;;;;;;;12.02;98.84;101390.03;4973897;28;20203;-50
2022/06/23 00:47:37;;;;;;;1.92;1.83;;;;;;;11.88;98.71;101387.81;5026003;28;20608;-50
2022/06/23 00:50:17;;;;;;;1.83;1.73;;;;;;;11.95;98.76;101386.69;5010781;28;20195;-50
2022/06/23 00:52:55;;;;;;;1.80;1.70;;;;;;;11.99;98.51;101395.50;5010353;28;20211;-50
2022/06/23 00:55:47;;;;;;;1.90;1.70;;;;;;;11.88;98.14;101401.25;5009710;28;20181;-49
2022/06/23 00:58:31;;;;;;;1.70;1.60;;;;;;;11.92;98.14;101395.72;5010223;28;20173;-49
2022/06/23 01:01:10;;;;;;;1.58;1.48;;;;;;;11.90;97.57;101392.22;5010359;28;20181;-48
2022/06/23 01:04:00;;;;;;;1.65;1.63;;;;;;;11.85;97.54;101402.22;5009346;28;20202;-49
2022/06/23 01:06:41;;;;;;;1.98;1.75;;;;;;;11.82;97.51;101402.28;5010090;28;20219;-50
2022/06/23 01:09:44;;;;;;;1.70;1.60;;;;;;;11.83;97.19;101404.06;5010035;28;20188;-50
2022/06/23 01:12:22;;;;;;;2.10;1.60;;;;;;;11.65;96.54;101408.22;5010448;28;20669;-50
2022/06/23 01:14:57;;;;;;;1.58;1.48;;;;;;;11.62;96.86;101402.97;5009760;28;20180;-49
2022/06/23 01:17:33;;;;;;;1.83;1.73;;;;;;;11.59;97.30;101403.09;5010430;28;20198;-47
2022/06/23 01:19:58;;;;;;;2.75;1.90;;;;;;;11.36;97.41;101411.00;5010195;28;20172;-48
2022/06/23 01:22:42;;;;;;;2.15;1.83;;;;;;;11.37;98.06;101407.38;5009848;28;20219;-48
2022/06/23 01:25:26;;;;;;;1.65;1.60;;;;;;;11.40;97.87;101410.84;5008675;28;20184;-47
2022/06/23 01:28:25;;;;;;;2.03;1.92;;;;;;;11.36;98.22;101411.88;5010099;28;20187;-48
2022/06/23 01:31:06;;;;;;;2.15;2.05;;;;;;;11.43;97.66;101407.19;5010329;28;20583;-50
2022/06/23 01:33:58;;;;;;;2.00;1.90;;;;;;;11.36;97.38;101416.38;5009252;28;20227;-49
2022/06/23 01:36:36;;;;;;;1.63;1.63;;;;;;;11.32;97.44;101411.09;5009016;28;20283;-50
2022/06/23 01:39:10;;;;;;;2.17;2.00;;;;;;;11.16;97.08;101417.00;5010120;28;20177;-47
2022/06/23 01:42:01;;;;;;;2.25;2.15;;;;;;;10.95;98.28;101421.22;5009999;28;20387;-49
2022/06/23 01:44:48;;;;;;;2.67;2.38;;;;;;;10.80;99.25;101417.19;5009330;28;20173;-48
2022/06/23 01:47:30;;;;;;;2.15;2.05;;;;;;;10.80;100.00;101420.75;5009694;28;20244;-49
2022/06/23 01:50:13;;;;;;;2.20;2.00;;;;;;;10.86;100.00;101406.28;5009950;28;20185;-49
2022/06/23 01:52:42;;;;;;;1.80;1.70;;;;;;;10.84;100.00;101405.44;5003792;28;20640;-46
2022/06/23 01:55:27;;;;;;;2.00;1.88;;;;;;;10.94;100.00;101409.63;5008880;28;20189;-48
2022/06/23 01:58:05;;;;;;;2.00;1.85;;;;;;;10.61;99.55;101403.47;5009769;28;20180;-48
2022/06/23 02:00:31;;;;;;;2.30;2.10;;;;;;;10.60;100.00;101417.78;5010035;28;20180;-47
2022/06/23 02:03:13;;;;;;;2.65;2.45;;;;;;;10.59;100.00;101416.91;5009199;28;20207;-46
2022/06/23 02:06:17;;;;;;;2.05;1.95;;;;;;;10.72;100.00;101418.31;5009658;28;20204;-47
2022/06/23 02:09:04;;;;;;;2.85;2.40;;;;;;;10.78;100.00;101416.34;5006029;28;20263;-47
2022/06/23 02:11:49;;;;;;;2.00;1.90;;;;;;;10.80;100.00;101422.53;5013471;28;20168;-48
2022/06/23 02:14:46;;;;;;;2.53;2.40;;;;;;;10.62;99.45;101426.66;5012987;28;20177;-48
2022/06/23 02:17:42;;;;;;;2.67;2.58;;;;;;;10.59;100.00;101424.94;5013086;28;20908;-49
2022/06/23 02:20:29;;;;;;;2.08;1.98;;;;;;;10.38;100.00;101428.22;5012766;28;20180;-48
2022/06/23 02:23:12;;;;;;;2.78;2.58;;;;;;;10.30;100.00;101428.44;5013104;28;20200;-48
2022/06/23 02:25:46;;;;;;;2.47;2.38;;;;;;;10.35;100.00;101428.31;5013057;28;20223;-47
2022/06/23 02:28:22;;;;;;;2.33;2.13;;;;;;;10.27;100.00;101432.03;5011489;28;20183;-48
2022/06/23 02:30:54;;;;;;;2.42;2.28;;;;;;;10.23;100.00;101430.38;5012922;28;20622;-49
2022/06/23 02:33:25;;;;;;;1.90;1.80;;;;;;;10.31;100.00;101439.09;5012187;28;20204;-49
2022/06/23 02:36:16;;;;;;;2.53;2.42;;;;;;;10.18;100.00;101439.44;5012793;28;20201;-46
2022/06/23 02:38:48;;;;;;;2.90;2.70;;;;;;;10.22;100.00;101431.28;5012664;28;20204;-49
2022/06/23 02:41:23;;;;;;;2.42;2.15;;;;;;;10.33;100.00;101424.81;5012797;28;20192;-48
2022/06/23 02:44:07;;;;;;;2.47;2.38;;;;;;;10.41;100.00;101431.69;5012317;28;20196;-48
2022/06/23 02:46:51;;;;;;;2.72;2.53;;;;;;;10.36;100.00;101432.75;5012305;28;20266;-47
2022/06/23 02:49:22;;;;;;;2.10;2.00;;;;;;;10.45;100.00;101440.50;5012513;28;20229;-50
2022/06/23 02:52:13;;;;;;;2.00;1.90;;;;;;;10.44;100.00;101442.31;5012289;28;20185;-49
2022/06/23 02:55:07;;;;;;;2.20;2.00;;;;;;;10.46;100.00;101450.31;5012124;28;20177;-46
2022/06/23 02:57:42;;;;;;;3.33;2.75;;;;;;;10.43;99.94;101445.03;5012191;28;20177;-49
2022/06/23 03:00:21;;;;;;;2.28;2.10;;;;;;;10.45;99.99;101445.88;5012753;28;20186;-50
2022/06/23 03:03:13;;;;;;;2.42;2.33;;;;;;;10.46;99.89;101448.50;5011968;28;20195;-49
2022/06/23 03:05:58;;;;;;;4.70;2.83;;;;;;;10.35;99.51;101450.63;5011952;28;20625;-48
2022/06/23 03:08:54;;;;;;;2.90;2.60;;;;;;;10.24;99.54;101455.34;5012339;28;20226;-50
2022/06/23 03:11:55;;;;;;;2.53;2.42;;;;;;;10.38;99.57;101438.94;5012381;28;20753;-49
2022/06/23 03:14:24;;;;;;;2.50;2.30;;;;;;;10.34;99.40;101439.94;4987991;28;20200;-49
2022/06/23 03:16:57;;;;;;;2.88;2.70;;;;;;;10.20;99.40;101440.28;5012053;28;20201;-47
2022/06/23 03:19:32;;;;;;;2.80;2.45;;;;;;;10.21;100.00;101442.03;5011683;28;20260;-49
2022/06/23 03:22:31;;;;;;;2.75;2.38;;;;;;;10.34;99.94;101438.13;5012101;28;20196;-48
2022/06/23 03:25:11;;;;;;;2.83;2.63;;;;;;;10.36;99.64;101441.66;5011778;28;20211;-48
2022/06/23 03:27:41;;;;;;;2.88;2.67;;;;;;;10.12;99.44;101440.47;5012217;28;20231;-48
2022/06/23 03:30:44;;;;;;;3.03;2.78;;;;;;;10.22;100.00;101449.16;5012178;28;20177;-50
2022/06/23 03:33:13;;;;;;;3.53;2.22;;;;;;;10.36;100.00;101446.13;5011508;28;20223;-50
2022/06/23 03:35:50;;;;;;;2.25;2.15;;;;;;;10.41;100.00;101447.78;5011886;28;20188;-49
2022/06/23 03:41:36;;;;;;;3.00;2.80;;;;;;;10.46;100.00;101442.28;5011961;28;20223;-48
2022/06/23 03:41:36;;;;;;;2.83;2.63;;;;;;;10.33;99.83;101444.44;5011883;28;20624;-51
2022/06/23 03:44:20;;;;;;;3.35;3.05;;;;;;;10.34;100.00;101456.00;5011991;28;20605;-47
2022/06/23 03:46:55;;;;;;;3.85;3.55;;;;;;;10.38;100.00;101463.03;5011937;28;20204;-48
2022/06/23 03:49:37;;;;;;;3.47;2.65;;;;;;;10.57;100.00;101444.66;5028786;28;20322;-50
2022/06/23 03:52:05;;;;;;;3.47;3.10;;;;;;;10.57;100.00;101455.38;5012456;28;20529;-44
2022/06/23 03:54:45;;;;;;;3.88;3.22;;;;;;;10.60;100.00;101466.00;5011612;28;20775;-51
2022/06/23 03:57:21;;;;;;;3.83;3.38;;;;;;;10.56;100.00;101450.94;5011721;28;20279;-44
2022/06/23 04:00:03;;;;;;;3.70;2.97;;;;;;;10.75;100.00;101457.53;5011318;28;20165;-45
2022/06/23 04:02:38;;;;;;;3.33;3.03;;;;;;;10.80;100.00;101460.06;5005136;28;20197;-44
2022/06/23 04:05:06;;;;;;;3.55;3.25;;;;;;;10.97;100.00;101454.22;5003767;28;20239;-44
2022/06/23 04:07:45;;;;;;;3.35;3.10;;;;;;;11.03;100.00;101470.13;5011190;28;20193;-46
2022/06/23 04:10:22;;;;;;;3.35;3.05;;;;;;;11.09;100.00;101468.16;5011661;28;20180;-44
2022/06/23 04:12:53;;;;;;;4.70;3.42;;;;;;;11.07;100.00;101464.63;5011396;28;20176;-49
2022/06/23 04:15:28;;;;;;;3.10;2.88;;;;;;;11.19;100.00;101454.44;5011198;28;20252;-47
2022/06/23 04:18:08;;;;;;;3.38;3.10;;;;;;;11.27;100.00;101453.28;5011417;28;20187;-46
2022/06/23 04:20:40;;;;;;;3.30;3.00;;;;;;;11.39;100.00;101460.09;5011302;28;20173;-46
2022/06/23 04:23:32;;;;;;;3.80;3.50;;;;;;;11.48;100.00;101462.47;5011204;28;20266;-45
2022/06/23 04:26:05;;;;;;;4.07;3.63;;;;;;;11.60;100.00;101461.19;5005289;28;20220;-46
2022/06/23 04:28:37;;;;;;;3.65;3.33;;;;;;;11.71;100.00;101459.03;5011273;28;20257;-47
2022/06/23 04:31:06;;;;;;;3.70;3.42;;;;;;;11.79;100.00;101449.88;5009875;28;20281;-45
2022/06/23 04:33:40;;;;;;;7.38;3.95;;;;;;;11.92;100.00;101459.28;5010815;28;20184;-44
2022/06/23 04:36:15;;;;;;;4.90;4.43;;;;;;;12.02;100.00;101460.72;5011049;28;20193;-46
2022/06/23 04:38:46;;;;;;;5.13;4.70;;;;;;;12.16;100.00;101455.75;5010955;28;20172;-48
2022/06/23 04:41:24;;;;;;;5.53;5.03;;;;;;;12.26;100.00;101455.44;5010851;28;20599;-46
2022/06/23 04:43:55;;;;;;;4.65;4.25;;;;;;;12.32;100.00;101456.09;5010339;28;20267;-43
2022/06/23 04:46:31;;;;;;;4.30;4.00;;;;;;;12.43;100.00;101470.97;5010891;28;20200;-44
2022/06/23 04:49:07;;;;;;;7.00;5.40;;;;;;;12.49;100.00;101462.69;5023282;28;20219;-43
2022/06/23 04:51:40;;;;;;;5.35;4.85;;;;;;;12.49;100.00;101471.63;5030260;28;20194;-46
2022/06/23 04:54:26;;;;;;;6.07;4.53;;;;;;;12.63;100.00;101471.13;5030334;28;20266;-45
2022/06/23 04:57:01;;;;;;;4.82;4.38;;;;;;;12.72;100.00;101473.47;5030168;28;20214;-44
2022/06/23 04:59:33;;;;;;;7.55;5.97;;;;;;;12.70;100.00;101477.16;5030470;28;20306;-45
2022/06/23 05:02:02;;;;;;;5.47;4.97;;;;;;;12.83;100.00;101469.50;5030027;28;20251;-46
2022/06/23 05:04:42;;;;;;;7.97;5.47;;;;;;;12.95;100.00;101477.13;5029927;28;20230;-51
2022/06/23 05:07:25;;;;;;;6.32;5.75;;;;;;;12.93;100.00;101469.09;5029795;28;20649;-46
2022/06/23 05:09:55;;;;;;;10.55;6.20;;;;;;;12.95;100.00;101478.00;5030234;28;20160;-43
2022/06/23 05:12:29;;;;;;;7.90;7.13;;;;;;;12.97;100.00;101486.00;5028951;28;20184;-46
2022/06/23 05:15:03;;;;;;;7.07;6.35;;;;;;;13.11;100.00;101482.78;5029159;28;20168;-46
2022/06/23 05:17:33;;;;;;;8.88;7.00;;;;;;;13.12;100.00;101485.44;5029915;28;20180;-46
2022/06/23 05:20:05;;;;;;;7.95;7.20;;;;;;;13.20;100.00;101488.69;5029932;28;20199;-51
2022/06/23 05:22:39;;;;;;;8.15;7.28;;;;;;;13.12;100.00;101487.25;5030011;28;20169;-45
2022/06/23 05:25:30;;;;;;;6.95;6.35;;;;;;;13.40;100.00;101484.38;5029547;28;20179;-50
2022/06/23 05:27:56;;;;;;;7.78;6.90;;;;;;;13.51;100.00;101492.91;5029665;28;20230;-45
2022/06/23 05:30:28;;;;;;;11.80;7.57;;;;;;;13.60;100.00;101492.53;5030240;28;20679;-47
2022/06/23 05:33:00;;;;;;;6.55;6.05;;;;;;;13.69;100.00;101496.69;5029440;28;20651;-47
2022/06/23 05:35:37;;;;;;;6.45;5.95;;;;;;;13.71;100.00;101489.41;5029164;28;20575;-47
2022/06/23 05:38:09;;;;;;;7.68;6.15;;;;;;;13.74;100.00;101497.38;5029568;28;20164;-44
2022/06/23 05:40:50;;;;;;;7.13;6.60;;;;;;;13.64;100.00;101492.41;5030039;28;20541;-46
2022/06/23 05:43:17;;;;;;;6.20;5.60;;;;;;;13.78;100.00;101498.13;5032313;28;20180;-49
2022/06/23 05:45:48;;;;;;;6.50;6.00;;;;;;;13.99;100.00;101485.56;5033963;28;20678;-46
2022/06/23 05:48:37;;;;;;;5.13;4.72;;;;;;;14.10;100.00;101488.72;5022497;28;20200;-47
2022/06/23 05:51:14;;;;;;;6.18;5.50;;;;;;;14.09;100.00;101504.94;5004735;28;20284;-47
2022/06/23 05:53:51;;;;;;;5.10;4.70;;;;;;;14.31;100.00;101496.81;5013797;28;20180;-45
2022/06/23 05:56:35;;;;;;;5.35;4.70;;;;;;;14.26;100.00;101490.75;5013985;28;20188;-44
2022/06/23 05:59:35;;;;;;;4.78;4.15;;;;;;;14.56;100.00;101494.84;5013951;28;20226;-47
2022/06/23 06:02:10;;;;;;;4.35;3.80;;;;;;;14.79;99.71;101498.31;4990033;28;20215;-45
2022/06/23 06:04:45;;;;;;;5.28;4.35;;;;;;;15.06;98.84;101496.16;5013448;28;20257;-46
2022/06/23 06:07:15;;;;;;;4.65;4.25;;;;;;;15.29;96.86;101494.22;5013356;28;20212;-45
2022/06/23 06:09:40;;;;;;;4.47;4.07;;;;;;;15.46;95.24;101502.41;5013773;28;20160;-49
2022/06/23 06:12:14;;;;;;;6.28;3.70;;;;;;;15.45;93.13;101488.00;5012850;28;20750;-45
2022/06/23 06:14:48;;;;;;;3.75;3.45;;;;;;;15.68;92.17;101486.03;5013512;28;20212;-45
2022/06/23 06:17:19;;;;;;;3.95;3.55;;;;;;;15.91;91.54;101481.34;5013729;28;20201;-42
2022/06/23 06:19:47;;;;;;;3.58;3.28;;;;;;;16.28;90.04;101483.91;5013217;28;20212;-48
2022/06/23 06:22:22;;;;;;;3.17;2.92;;;;;;;16.41;88.27;101485.97;5013753;28;20184;-44
2022/06/23 06:24:52;;;;;;;2.85;2.55;;;;;;;16.32;87.25;101486.47;5012890;28;20259;-45
2022/06/23 06:27:18;;;;;;;4.13;2.90;;;;;;;16.27;87.45;101487.56;5013499;28;20311;-42
2022/06/23 06:29:46;;;;;;;3.22;2.92;;;;;;;16.49;87.61;101486.47;5013305;28;20709;-50
2022/06/23 06:32:29;;;;;;;2.83;2.63;;;;;;;16.89;86.58;101482.53;5012991;28;20970;-43
2022/06/23 06:34:58;;;;;;;4.35;3.22;;;;;;;16.96;85.21;101488.47;5011143;28;20269;-42
2022/06/23 06:37:29;;;;;;;3.25;2.95;;;;;;;16.97;85.04;101479.41;5012812;28;20231;-41
2022/06/23 06:39:58;;;;;;;3.20;2.90;;;;;;;16.72;85.08;101484.34;5012068;28;20199;-42
2022/06/23 06:42:39;;;;;;;3.95;3.15;;;;;;;16.43;85.99;101487.66;5024290;28;20210;-43
2022/06/23 06:45:09;;;;;;;3.75;2.75;;;;;;;16.85;86.67;101489.06;5018133;28;20176;-43
2022/06/23 06:47:38;;;;;;;4.63;2.83;;;;;;;17.02;85.92;101473.75;5006130;28;20243;-42
2022/06/23 06:50:18;;;;;;;4.13;3.17;;;;;;;17.03;84.33;101479.09;5012947;28;20589;-44
2022/06/23 06:52:49;;;;;;;4.18;3.78;;;;;;;16.72;85.51;101482.53;5014871;28;20184;-40
2022/06/23 06:55:25;;;;;;;4.03;3.28;;;;;;;16.93;85.91;101472.41;5013896;28;20186;-42
2022/06/23 06:57:57;;;;;;;3.67;3.30;;;;;;;16.99;85.86;101476.59;5016344;28;20176;-42
2022/06/23 07:00:32;;;;;;;3.60;3.25;;;;;;;17.12;86.28;101482.22;4992993;28;20252;-42
2022/06/23 07:03:04;;;;;;;4.30;3.90;;;;;;;16.95;85.10;101475.91;5017400;28;20184;-42
2022/06/23 07:05:42;;;;;;;4.93;2.80;;;;;;;17.16;85.68;101476.53;5006533;28;20204;-42
2022/06/23 07:08:19;;;;;;;4.40;3.65;;;;;;;17.57;84.15;101486.03;5015680;28;20185;-43
2022/06/23 07:10:59;;;;;;;5.60;3.30;;;;;;;17.39;83.48;101479.81;5019981;28;20185;-41
2022/06/23 07:13:42;;;;;;;2.92;2.53;;;;;;;17.70;83.62;101481.66;5013876;28;20216;-44
2022/06/23 07:16:20;;;;;;;5.20;3.10;;;;;;;17.57;83.33;101477.91;4991577;28;20680;-42
2022/06/23 07:19:00;;;;;;;3.10;2.90;;;;;;;17.89;83.45;101478.78;4992451;28;20633;-42
2022/06/23 07:21:38;;;;;;;4.03;3.63;;;;;;;18.18;82.27;101473.47;4992497;28;20636;-42
2022/06/23 07:24:12;;;;;;;3.45;3.15;;;;;;;18.31;81.31;101478.03;5002398;28;20181;-42
2022/06/23 07:26:44;;;;;;;3.40;3.10;;;;;;;18.64;80.45;101481.53;5011872;28;20591;-42
2022/06/23 07:29:40;;;;;;;3.90;3.15;;;;;;;18.86;79.43;101465.66;5011656;28;20236;-42
2022/06/23 07:32:43;;;;;;;3.47;3.13;;;;;;;19.00;77.71;101470.25;5011781;28;20169;-43
2022/06/23 07:35:19;;;;;;;3.72;3.25;;;;;;;18.27;78.78;101478.31;5011863;28;20153;-42
2022/06/23 07:37:58;;;;;;;6.18;3.40;;;;;;;18.57;81.76;101475.59;5012117;28;20172;-42
2022/06/23 07:40:28;;;;;;;4.70;3.55;;;;;;;18.85;78.54;101472.06;5012163;28;20180;-42
2022/06/23 07:42:53;;;;;;;5.70;3.10;;;;;;;19.43;78.02;101461.16;5011697;28;20184;-44
2022/06/23 07:45:25;;;;;;;4.03;3.28;;;;;;;19.28;77.53;101465.72;5011566;28;20298;-42
2022/06/23 07:47:51;;;;;;;3.70;3.20;;;;;;;19.67;76.17;101464.97;5011935;28;20654;-41
2022/06/23 07:50:17;;;;;;;5.80;3.60;;;;;;;19.73;75.31;101470.03;5011706;28;20173;-40
2022/06/23 07:52:44;;;;;;;6.50;3.53;;;;;;;19.71;75.57;101477.41;5011895;28;20192;-41
2022/06/23 07:55:23;;;;;;;4.00;3.70;;;;;;;19.90;74.25;101468.03;5011176;28;20659;-42
2022/06/23 07:57:49;;;;;;;3.88;3.30;;;;;;;20.43;73.04;101460.75;5011766;28;20226;-42
2022/06/23 08:00:15;;;;;;;5.00;3.50;;;;;;;20.24;74.42;101449.41;5011802;28;20747;-42
2022/06/23 08:02:51;;;;;;;4.45;3.53;;;;;;;20.54;74.09;101457.28;5011549;28;20243;-42
2022/06/23 08:05:26;;;;;;;4.43;3.45;;;;;;;21.01;73.40;101454.91;5010946;28;20267;-41
2022/06/23 08:07:54;;;;;;;3.72;2.92;;;;;;;20.75;73.33;101460.34;5011219;28;20168;-43
2022/06/23 08:10:24;;;;;;;6.90;3.22;;;;;;;20.89;71.59;101460.25;5011502;28;20247;-43
2022/06/23 08:13:25;;;;;;;3.20;2.88;;;;;;;21.12;72.20;101452.25;5011183;28;20655;-43
2022/06/23 08:18:45;;;;;;;3.10;2.85;;;;;;;21.41;70.10;101461.09;5015875;28;20241;-44
2022/06/23 08:21:17;;;;;;;2.92;2.60;;;;;;;21.26;71.62;101463.03;5010507;28;20169;-45
2022/06/23 08:23:58;;;;;;;3.15;2.40;;;;;;;21.03;71.87;101467.44;5010548;28;20643;-42
2022/06/23 08:26:24;;;;;;;3.47;2.88;;;;;;;21.30;72.20;101463.69;5018840;28;20192;-42
2022/06/23 08:28:55;;;;;;;2.70;2.50;;;;;;;21.46;70.85;101469.78;5029569;28;20258;-42
2022/06/23 08:31:21;;;;;;;3.95;2.47;;;;;;;21.62;69.88;101460.47;5030682;28;20194;-43
2022/06/23 08:33:47;;;;;;;3.35;2.65;;;;;;;21.61;69.93;101467.78;5029119;28;20179;-45
2022/06/23 08:36:19;;;;;;;3.85;2.45;;;;;;;21.67;71.49;101458.25;5030343;28;20223;-42
2022/06/23 08:39:09;;;;;;;3.15;2.88;;;;;;;21.47;69.48;101459.75;5030603;28;20172;-42
2022/06/23 08:42:00;;;;;;;4.43;2.55;;;;;;;21.81;70.26;101456.22;5030217;28;20195;-44
2022/06/23 08:44:38;;;;;;;3.75;2.28;;;;;;;21.80;70.27;101459.09;5030355;28;20210;-43
2022/06/23 08:47:14;;;;;;;3.83;2.45;;;;;;;22.06;69.31;101462.53;5030343;28;20207;-42
2022/06/23 08:49:57;;;;;;;3.80;2.45;;;;;;;21.35;69.90;101465.09;5015663;28;20733;-43
2022/06/23 08:52:30;;;;;;;5.03;2.10;;;;;;;21.81;71.25;101467.13;5010542;28;20608;-41
2022/06/23 08:55:09;;;;;;;3.88;2.78;;;;;;;21.67;68.47;101459.16;5009548;28;20541;-42
2022/06/23 08:57:39;;;;;;;2.53;2.33;;;;;;;21.87;68.84;101456.78;5010472;28;20267;-43
2022/06/23 09:00:05;;;;;;;4.45;2.60;;;;;;;21.27;73.04;101459.31;5009644;28;20172;-42
2022/06/23 09:02:49;;;;;;;2.97;2.65;;;;;;;21.64;74.02;101448.44;5010656;28;20587;-42
2022/06/23 09:05:18;;;;;;;3.80;2.00;;;;;;;22.28;69.39;101445.44;5010197;28;20168;-42
2022/06/23 09:08:21;;;;;;;3.47;2.13;;;;;;;22.78;67.04;101445.13;5010036;28;20227;-43
2022/06/23 09:11:09;;;;;;;4.35;2.47;;;;;;;20.74;72.46;101453.19;4995600;28;20203;-41
2022/06/23 09:13:44;;;;;;;3.45;2.67;;;;;;;20.56;76.08;101453.47;5008594;28;20596;-42
2022/06/23 09:16:28;;;;;;;4.22;3.03;;;;;;;20.42;76.23;101455.41;5010090;28;20242;-41
2022/06/23 09:19:31;;;;;;;4.05;3.10;;;;;;;19.61;79.01;101456.34;5010020;28;20172;-43
2022/06/23 09:22:07;;;;;;;3.90;3.33;;;;;;;19.74;80.51;101462.75;5003706;28;20697;-44
2022/06/23 09:24:55;;;;;;;3.65;2.85;;;;;;;19.51;81.68;101456.09;5009825;28;20164;-47
2022/06/23 09:27:51;;;;;;;3.80;2.53;;;;;;;19.52;82.08;101463.25;5010236;28;20287;-45
2022/06/23 09:30:40;;;;;;;2.70;2.35;;;;;;;19.42;82.91;101459.41;5010096;28;20184;-46
2022/06/23 09:33:32;;;;;;;3.63;2.70;;;;;;;19.80;82.13;101462.34;5009987;28;20169;-46
2022/06/23 09:35:57;;;;;;;2.38;2.08;;;;;;;20.58;81.47;101459.72;4990622;28;20734;-46
2022/06/23 09:38:31;;;;;;;2.55;2.38;;;;;;;20.42;80.04;101442.66;5010128;28;20228;-45
2022/06/23 09:41:17;;;;;;;3.05;2.15;;;;;;;21.38;75.81;101440.34;5008674;28;20235;-47
2022/06/23 09:44:03;;;;;;;2.15;1.77;;;;;;;21.75;75.55;101437.59;5014234;28;20177;-45
2022/06/23 09:46:50;;;;;;;3.45;1.98;;;;;;;21.47;74.80;101443.38;5014420;28;20580;-46
2022/06/23 09:49:33;;;;;;;4.57;3.42;;;;;;;20.94;76.94;101441.72;5019594;28;20190;-46
2022/06/23 09:51:59;;;;;;;3.95;2.67;;;;;;;21.34;78.35;101438.81;5011810;28;20227;-44
2022/06/23 09:54:49;;;;;;;2.65;2.30;;;;;;;20.60;78.03;101435.13;5022686;28;20276;-46
2022/06/23 09:57:20;;;;;;;2.25;2.05;;;;;;;21.77;75.97;101434.75;5014644;28;20199;-49
2022/06/23 10:00:10;;;;;;;4.15;2.47;;;;;;;21.15;75.79;101433.00;5007276;28;20206;-49
2022/06/23 10:03:02;;;;;;;2.47;1.80;;;;;;;22.16;73.72;101427.22;5009758;28;20263;-46
2022/06/23 10:05:50;;;;;;;2.53;2.00;;;;;;;21.23;75.83;101427.84;5009406;28;20203;-45
2022/06/23 10:08:27;;;;;;;3.60;1.70;;;;;;;21.11;76.71;101426.00;5009663;28;20238;-48
2022/06/23 10:11:20;;;;;;;4.28;2.00;;;;;;;20.95;78.01;101415.38;5009326;28;20168;-45
2022/06/23 10:14:06;;;;;;;2.65;1.70;;;;;;;21.39;77.70;101428.44;5009530;28;20179;-48
2022/06/23 10:17:25;;;;;;;2.42;1.83;;;;;;;22.16;74.42;101416.31;5009241;28;20188;-50
2022/06/23 10:20:14;;;;;;;4.22;2.40;;;;;;;21.08;76.50;101420.78;4986226;28;20184;-46
2022/06/23 10:22:48;;;;;;;2.45;1.88;;;;;;;21.62;75.82;101408.66;5008544;28;20196;-46
2022/06/23 10:25:45;;;;;;;3.05;1.50;;;;;;;22.17;69.61;101409.84;5008944;28;20268;-46
2022/06/23 10:28:43;;;;;;;3.03;2.03;;;;;;;21.72;73.13;101415.16;5010609;28;20587;-48
2022/06/23 10:31:51;;;;;;;3.08;1.63;;;;;;;22.37;72.64;101397.44;5001430;28;20235;-46
2022/06/23 10:34:34;;;;;;;2.88;1.60;;;;;;;23.56;70.08;101383.19;5012698;28;20184;-48
2022/06/23 10:37:11;;;;;;;5.28;1.50;;;;;;;24.00;66.64;101386.75;5011842;28;20593;-46
2022/06/23 10:39:54;;;;;;;2.95;1.80;;;;;;;24.27;64.31;101376.16;5011861;28;20686;-47
2022/06/23 10:42:27;;;;;;;2.20;1.10;;;;;;;25.05;61.79;101379.28;5013224;28;20191;-46
2022/06/23 10:44:58;;;;;;;1.50;1.40;;;;;;;24.90;62.36;101372.44;5012454;28;20184;-47
2022/06/23 10:47:55;;;;;;;3.90;1.48;;;;;;;24.77;62.12;101378.16;5012615;28;20246;-47
2022/06/23 10:50:41;;;;;;;2.63;1.50;;;;;;;24.56;62.37;101382.84;5009786;28;20192;-48
2022/06/23 10:53:12;;;;;;;12.10;1.63;;;;;;;24.23;61.93;101371.94;5012563;28;20199;-47
2022/06/23 10:55:48;;;;;;;4.95;1.70;;;;;;;24.58;63.12;101369.88;5012771;28;20251;-49
2022/06/23 10:58:32;;;;;;;3.40;1.40;;;;;;;25.08;59.79;101369.94;5012576;28;20207;-49
2022/06/23 11:00:58;;;;;;;2.53;1.50;;;;;;;24.45;59.52;101364.59;5013142;28;20631;-47
2022/06/23 11:03:50;;;;;;;3.38;1.50;;;;;;;25.06;59.00;101364.59;5012186;28;20251;-48
2022/06/23 11:06:22;;;;;;;2.22;1.27;;;;;;;24.34;60.80;101351.84;5011806;28;20445;-47
2022/06/23 11:09:18;;;;;;;3.08;1.10;;;;;;;24.94;60.13;101349.25;5012582;28;20624;-48
2022/06/23 11:12:12;;;;;;;1.35;1.02;;;;;;;25.41;59.78;101354.16;5012961;28;20160;-44
2022/06/23 11:15:20;;;;;;;3.67;1.30;;;;;;;25.43;58.54;101343.88;5008542;28;20190;-48
2022/06/23 11:18:10;;;;;;;2.28;1.20;;;;;;;25.81;58.08;101343.03;5012435;28;20250;-45
2022/06/23 11:20:49;;;;;;;4.80;1.13;;;;;;;25.41;57.95;101344.03;5012039;28;20172;-47
2022/06/23 11:23:59;;;;;;;3.25;1.20;;;;;;;25.19;61.99;101342.41;5012053;28;20279;-47
2022/06/23 11:26:35;;;;;;;1.63;1.30;;;;;;;25.54;61.51;101343.75;5012013;28;20227;-49
2022/06/23 11:29:30;;;;;;;3.28;1.48;;;;;;;25.76;61.88;101341.72;5012521;28;20161;-45
2022/06/23 11:32:15;;;;;;;2.05;1.52;;;;;;;25.99;60.74;101332.19;5012089;28;20179;-47
2022/06/23 11:35:01;;;;;;;4.80;1.45;;;;;;;25.33;63.40;101337.53;5011667;28;20255;-48
2022/06/23 11:37:53;;;;;;;2.50;1.08;;;;;;;24.19;63.78;101332.16;5012223;28;20698;-49
2022/06/23 11:40:29;;;;;;;2.88;1.20;;;;;;;24.36;66.99;101329.78;5011213;28;20184;-46
2022/06/23 11:43:04;;;;;;;2.03;1.30;;;;;;;24.57;65.84;101329.78;5010915;28;20194;-46
2022/06/23 11:45:54;;;;;;;1.30;1.20;;;;;;;24.18;66.87;101329.53;5011637;28;20199;-47
2022/06/23 11:48:28;;;;;;;2.90;1.30;;;;;;;23.51;67.86;101341.69;5011257;28;20239;-46
2022/06/23 11:51:15;;;;;;;2.67;1.30;;;;;;;23.31;69.57;101340.63;5011518;28;20172;-47
2022/06/23 11:53:50;;;;;;;2.40;1.48;;;;;;;23.63;71.25;101333.28;5011704;28;20176;-46
2022/06/23 11:56:32;;;;;;;2.35;1.30;;;;;;;24.44;67.50;101324.50;5011646;28;20196;-47
2022/06/23 11:59:11;;;;;;;2.83;1.70;;;;;;;23.54;69.90;101331.34;5011703;28;20160;-46
2022/06/23 12:01:37;;;;;;;2.10;1.70;;;;;;;22.95;72.18;101331.72;5011598;28;20175;-46
2022/06/23 12:04:17;;;;;;;2.10;1.63;;;;;;;22.52;74.76;101336.13;5011043;28;20224;-48
2022/06/23 12:07:09;;;;;;;5.93;2.00;;;;;;;22.14;76.02;101339.13;5011422;28;20519;-47
2022/06/23 12:10:12;;;;;;;3.70;1.75;;;;;;;22.24;77.32;101336.56;5028944;28;20219;-46
2022/06/23 12:12:40;;;;;;;2.92;1.70;;;;;;;22.15;77.02;101333.56;5030065;28;20630;-47
2022/06/23 12:15:07;;;;;;;3.00;1.70;;;;;;;21.92;78.11;101342.69;5030583;28;20202;-47
2022/06/23 12:17:37;;;;;;;2.88;1.67;;;;;;;21.77;79.18;101350.19;5031014;28;20186;-46
2022/06/23 12:20:40;;;;;;;2.08;1.25;;;;;;;22.05;78.88;101332.56;5030615;28;20210;-47